Time;durP1;ratioP1;P1;durP2;ratioP2;P2;SDS_P1;SDS_P2;PMS_P1;PMS_P2;Temp;Humidity;BMP_temperature;BMP_pressure;BME280_temperature;BME280_humidity;BME280_pressure;Samples;Min_cycle;Max_cycle;Signal;HPM_P1;HPM_P2
2021/08/10 00:01:26;;;;;;;;;;;14.60;99.90;;;;;;5071631;28;20383;-72
2021/08/10 00:03:58;;;;;;;;;;;14.60;99.90;;;;;;5070823;28;19928;-72
2021/08/10 00:06:30;;;;;;;;;;;14.60;99.90;;;;;;5054448;28;19924;-72
2021/08/10 00:09:01;;;;;;;;;;;14.50;99.90;;;;;;5070553;28;19947;-72
2021/08/10 00:11:33;;;;;;;;;;;14.40;99.90;;;;;;5070255;28;19929;-72
2021/08/10 00:14:00;;;;;;;;;;;14.40;99.90;;;;;;5070559;28;19924;-72
2021/08/10 00:16:27;;;;;;;;;;;14.40;99.90;;;;;;5070362;28;19924;-72
2021/08/10 00:18:59;;;;;;;;;;;14.40;99.90;;;;;;5071848;28;19928;-73
2021/08/10 00:21:25;;;;;;;;;;;14.40;99.90;;;;;;5053539;28;19924;-72
2021/08/10 00:23:52;;;;;;;;;;;14.40;99.90;;;;;;5053876;28;20403;-72
2021/08/10 00:26:23;;;;;;;;;;;14.50;99.90;;;;;;5070285;28;20026;-72
2021/08/10 00:28:55;;;;;;;;;;;14.40;99.90;;;;;;5054409;28;19931;-72
2021/08/10 00:31:27;;;;;;;;;;;14.40;99.90;;;;;;5070032;28;20027;-73
2021/08/10 00:33:53;;;;;;;;;;;14.40;99.90;;;;;;5070089;28;19932;-72
2021/08/10 00:36:20;;;;;;;;;;;14.40;99.90;;;;;;5055120;28;20297;-73
2021/08/10 00:38:52;;;;;;;;;;;14.40;99.90;;;;;;5074303;28;19924;-72
2021/08/10 00:41:25;;;;;;;;;;;14.40;99.90;;;;;;5073886;28;19935;-72
2021/08/10 00:43:58;;;;;;;;;;;14.40;99.90;;;;;;5058261;28;19925;-72
2021/08/10 00:46:27;;;;;;;;;;;14.40;99.90;;;;;;5073667;28;19924;-72
2021/08/10 00:48:59;;;;;;;;;;;14.30;99.90;;;;;;5058118;28;19925;-72
2021/08/10 00:51:34;;;;;;;;;;;14.30;99.90;;;;;;5073468;28;20370;-73
2021/08/10 00:54:14;;;;;;;;;;;14.30;99.90;;;;;;5059079;28;20493;-72
2021/08/10 00:56:47;;;;;;;;;;;14.20;99.90;;;;;;5058035;28;20384;-72
2021/08/10 00:59:26;;;;;;;;;;;14.20;99.90;;;;;;5073345;28;20382;-72
2021/08/10 01:02:00;;;;;;;;;;;14.20;99.90;;;;;;5072854;28;19932;-73
2021/08/10 01:04:27;;;;;;;;;;;14.10;99.90;;;;;;5072872;28;19931;-72
2021/08/10 01:07:09;;;;;;;;;;;14.10;99.90;;;;;;5073023;28;20023;-72
2021/08/10 01:09:43;;;;;;;;;;;14.00;99.90;;;;;;5072746;28;20394;-72
2021/08/10 01:12:13;;;;;;;;;;;14.00;99.90;;;;;;5055979;28;20359;-72
2021/08/10 01:14:45;;;;;;;;;;;14.00;99.90;;;;;;5072733;28;19932;-72
2021/08/10 01:17:31;;;;;;;;;;;13.90;99.90;;;;;;5072919;28;19925;-72
2021/08/10 01:20:15;;;;;;;;;;;13.90;99.90;;;;;;5056864;28;19946;-72
2021/08/10 01:22:50;;;;;;;;;;;13.90;99.90;;;;;;5072818;28;19924;-72
2021/08/10 01:25:28;;;;;;;;;;;13.90;99.90;;;;;;5072767;28;19925;-72
2021/08/10 01:28:20;;;;;;;;;;;13.90;99.90;;;;;;5073018;28;19925;-72
2021/08/10 01:30:52;;;;;;;;;;;13.90;99.90;;;;;;5073060;28;19928;-72
2021/08/10 01:33:20;;;;;;;;;;;14.00;99.90;;;;;;5074088;28;19925;-72
2021/08/10 01:35:52;;;;;;;;;;;14.00;99.90;;;;;;5056957;28;19925;-72
2021/08/10 01:38:25;;;;;;;;;;;14.00;99.90;;;;;;5072692;28;20406;-73
2021/08/10 01:40:52;;;;;;;;;;;14.00;99.90;;;;;;5072193;28;20301;-71
2021/08/10 01:43:24;;;;;;;;;;;14.00;99.90;;;;;;5072174;28;19979;-72
2021/08/10 01:45:51;;;;;;;;;;;14.00;99.90;;;;;;5072266;28;19925;-72
2021/08/10 01:48:19;;;;;;;;;;;14.00;99.90;;;;;;5054537;28;19924;-72
2021/08/10 01:50:46;;;;;;;;;;;14.00;99.90;;;;;;5072806;28;20023;-72
2021/08/10 01:53:20;;;;;;;;;;;14.00;99.90;;;;;;5072599;28;19924;-72
2021/08/10 01:55:48;;;;;;;;;;;13.90;99.90;;;;;;5072620;28;19924;-73
2021/08/10 01:58:28;;;;;;;;;;;13.90;99.90;;;;;;5072816;28;19968;-72
2021/08/10 02:00:57;;;;;;;;;;;13.90;99.90;;;;;;5055932;28;19925;-72
2021/08/10 02:03:30;;;;;;;;;;;13.90;99.90;;;;;;5056885;28;20326;-72
2021/08/10 02:06:05;;;;;;;;;;;13.90;99.90;;;;;;5072441;28;19967;-72
2021/08/10 02:08:39;;;;;;;;;;;13.80;99.90;;;;;;5072325;28;19986;-72
2021/08/10 02:11:07;;;;;;;;;;;13.80;99.90;;;;;;5072123;28;19925;-73
2021/08/10 02:13:39;;;;;;;;;;;13.80;99.90;;;;;;5056609;28;20174;-72
2021/08/10 02:16:08;;;;;;;;;;;13.70;99.90;;;;;;5055799;28;19974;-72
2021/08/10 02:18:44;;;;;;;;;;;13.70;99.90;;;;;;5072458;28;19984;-72
2021/08/10 02:21:22;;;;;;;;;;;13.70;99.90;;;;;;5056945;28;19950;-72
2021/08/10 02:23:58;;;;;;;;;;;13.60;99.90;;;;;;5056513;28;20401;-72
2021/08/10 02:26:32;;;;;;;;;;;13.60;99.90;;;;;;5056330;28;19954;-73
2021/08/10 02:29:04;;;;;;;;;;;13.60;99.90;;;;;;5055938;28;19977;-72
2021/08/10 02:31:36;;;;;;;;;;;13.60;99.90;;;;;;5071808;28;19977;-73
2021/08/10 02:34:08;;;;;;;;;;;13.60;99.90;;;;;;5072119;28;20011;-72
2021/08/10 02:36:35;;;;;;;;;;;13.60;99.90;;;;;;5071802;28;19924;-72
2021/08/10 02:39:08;;;;;;;;;;;13.60;99.90;;;;;;5055939;28;20024;-73
2021/08/10 02:41:39;;;;;;;;;;;13.60;99.90;;;;;;5055244;28;19940;-72
2021/08/10 02:44:11;;;;;;;;;;;13.60;99.90;;;;;;5071570;28;19929;-72
2021/08/10 02:46:44;;;;;;;;;;;13.50;99.90;;;;;;5055920;28;19977;-72
2021/08/10 02:49:16;;;;;;;;;;;13.50;99.90;;;;;;5072795;28;20387;-73
2021/08/10 02:51:47;;;;;;;;;;;13.50;99.90;;;;;;5071316;28;19931;-73
2021/08/10 02:54:14;;;;;;;;;;;13.40;99.90;;;;;;5055034;28;19934;-73
2021/08/10 02:56:52;;;;;;;;;;;13.40;99.90;;;;;;5071412;28;20390;-73
2021/08/10 02:59:31;;;;;;;;;;;13.40;99.90;;;;;;5071078;28;19935;-72
2021/08/10 03:02:06;;;;;;;;;;;13.40;99.90;;;;;;5055420;28;20035;-72
2021/08/10 03:04:45;;;;;;;;;;;13.40;99.90;;;;;;5071310;28;19925;-73
2021/08/10 03:07:17;;;;;;;;;;;13.30;99.90;;;;;;5071076;28;19970;-72
2021/08/10 03:09:47;;;;;;;;;;;13.20;99.90;;;;;;5054857;28;19935;-72
2021/08/10 03:12:13;;;;;;;;;;;13.20;99.90;;;;;;5054312;28;19924;-73
2021/08/10 03:14:48;;;;;;;;;;;13.10;99.90;;;;;;5055205;28;19924;-73
2021/08/10 03:17:15;;;;;;;;;;;13.10;99.90;;;;;;5054429;28;20298;-73
2021/08/10 03:19:47;;;;;;;;;;;13.20;99.90;;;;;;5071237;28;19924;-72
2021/08/10 03:22:15;;;;;;;;;;;13.20;99.90;;;;;;5071048;28;19935;-72
2021/08/10 03:24:43;;;;;;;;;;;13.30;99.90;;;;;;5071008;28;19924;-73
2021/08/10 03:27:16;;;;;;;;;;;13.30;99.90;;;;;;5070576;28;20383;-72
2021/08/10 03:29:47;;;;;;;;;;;13.30;99.90;;;;;;5054988;28;19929;-72
2021/08/10 03:32:20;;;;;;;;;;;13.30;99.90;;;;;;5072021;28;19956;-72
2021/08/10 03:34:52;;;;;;;;;;;13.20;99.90;;;;;;5070995;28;20301;-73
2021/08/10 03:37:20;;;;;;;;;;;13.00;99.90;;;;;;5070951;28;20351;-73
2021/08/10 03:39:54;;;;;;;;;;;13.00;99.90;;;;;;5070891;28;20007;-73
2021/08/10 03:42:25;;;;;;;;;;;13.00;99.90;;;;;;5054747;28;19924;-73
2021/08/10 03:44:53;;;;;;;;;;;13.10;99.90;;;;;;5054219;28;20436;-73
2021/08/10 03:47:25;;;;;;;;;;;13.10;99.90;;;;;;5070639;28;19924;-72
2021/08/10 03:49:59;;;;;;;;;;;13.10;99.90;;;;;;5054984;28;19924;-72
2021/08/10 03:52:31;;;;;;;;;;;13.10;99.90;;;;;;5069797;28;20402;-72
2021/08/10 03:54:58;;;;;;;;;;;13.20;99.90;;;;;;5069993;28;19924;-73
2021/08/10 03:57:32;;;;;;;;;;;13.20;99.90;;;;;;5069939;28;20027;-73
2021/08/10 03:59:59;;;;;;;;;;;13.30;99.90;;;;;;5053432;28;19931;-73
2021/08/10 04:02:40;;;;;;;;;;;13.30;99.90;;;;;;5069731;28;19928;-73
2021/08/10 04:05:11;;;;;;;;;;;13.40;99.90;;;;;;5053811;28;19958;-72
2021/08/10 04:07:43;;;;;;;;;;;13.40;99.90;;;;;;5072246;28;20379;-72
2021/08/10 04:10:15;;;;;;;;;;;13.40;99.90;;;;;;5069779;28;19924;-72
2021/08/10 04:12:43;;;;;;;;;;;13.40;99.90;;;;;;5073407;28;20022;-72
2021/08/10 04:15:15;;;;;;;;;;;13.40;99.90;;;;;;5073896;28;19928;-73
2021/08/10 04:17:43;;;;;;;;;;;13.40;99.90;;;;;;5057688;28;19924;-73
2021/08/10 04:20:11;;;;;;;;;;;13.40;99.90;;;;;;5074093;28;20394;-72
2021/08/10 04:22:40;;;;;;;;;;;13.40;99.90;;;;;;5073633;28;19929;-72
2021/08/10 04:25:10;;;;;;;;;;;13.40;99.90;;;;;;5073945;28;20019;-73
2021/08/10 04:27:42;;;;;;;;;;;13.50;99.90;;;;;;5057951;28;19947;-73
2021/08/10 04:30:17;;;;;;;;;;;13.50;99.90;;;;;;5058117;28;19924;-73
2021/08/10 04:32:48;;;;;;;;;;;13.50;99.90;;;;;;5057524;28;19931;-72
2021/08/10 04:35:17;;;;;;;;;;;13.50;99.90;;;;;;5057980;28;19931;-72
2021/08/10 04:37:49;;;;;;;;;;;13.50;99.90;;;;;;5058193;28;19925;-72
2021/08/10 04:40:22;;;;;;;;;;;13.60;99.90;;;;;;5058355;28;19981;-72
2021/08/10 04:43:21;;;;;;;;;;;13.60;99.90;;;;;;5066106;28;19924;-73
2021/08/10 04:45:48;;;;;;;;;;;13.60;99.90;;;;;;5074120;28;20318;-72
2021/08/10 04:48:15;;;;;;;;;;;13.60;99.90;;;;;;5066234;28;19929;-72
2021/08/10 04:50:47;;;;;;;;;;;13.60;99.90;;;;;;5066429;28;19987;-73
2021/08/10 04:53:18;;;;;;;;;;;13.70;99.90;;;;;;5048625;28;19959;-72
2021/08/10 04:55:50;;;;;;;;;;;13.70;99.90;;;;;;5057605;28;19928;-73
2021/08/10 04:58:22;;;;;;;;;;;13.70;99.90;;;;;;5056991;28;20015;-73
2021/08/10 05:00:54;;;;;;;;;;;13.80;99.90;;;;;;5065303;28;19974;-72
2021/08/10 05:03:21;;;;;;;;;;;13.80;99.90;;;;;;5048384;28;19924;-72
2021/08/10 05:05:50;;;;;;;;;;;13.80;99.90;;;;;;5057427;28;19928;-73
2021/08/10 05:08:22;;;;;;;;;;;13.80;99.90;;;;;;5053041;28;20287;-73
2021/08/10 05:10:58;;;;;;;;;;;13.90;99.90;;;;;;5060992;28;20390;-72
2021/08/10 05:13:30;;;;;;;;;;;13.90;99.90;;;;;;5056219;28;19956;-71
2021/08/10 05:15:56;;;;;;;;;;;13.90;99.90;;;;;;5052070;28;19946;-72
2021/08/10 05:18:24;;;;;;;;;;;13.90;99.90;;;;;;5053431;28;19928;-73
2021/08/10 05:20:56;;;;;;;;;;;13.80;99.90;;;;;;5048360;28;19932;-72
2021/08/10 05:23:34;;;;;;;;;;;13.80;99.90;;;;;;5032837;28;19983;-73
2021/08/10 05:26:06;;;;;;;;;;;13.80;99.90;;;;;;5048059;28;19925;-73
2021/08/10 05:28:42;;;;;;;;;;;13.80;99.90;;;;;;5033161;28;20027;-72
2021/08/10 05:31:17;;;;;;;;;;;13.90;99.90;;;;;;5047941;28;19925;-72
2021/08/10 05:33:43;;;;;;;;;;;14.00;99.90;;;;;;5049287;28;20007;-72
2021/08/10 05:36:19;;;;;;;;;;;14.00;99.90;;;;;;5032573;28;19926;-72
2021/08/10 05:38:53;;;;;;;;;;;14.10;99.90;;;;;;5050172;28;19939;-73
2021/08/10 05:41:21;;;;;;;;;;;14.10;99.90;;;;;;5068027;28;20007;-72
2021/08/10 05:43:48;;;;;;;;;;;14.20;99.90;;;;;;5034229;28;19925;-73
2021/08/10 05:46:15;;;;;;;;;;;14.30;99.90;;;;;;5049188;28;19929;-74
2021/08/10 05:48:47;;;;;;;;;;;14.40;99.90;;;;;;5032526;28;19956;-72
2021/08/10 05:51:19;;;;;;;;;;;14.40;99.90;;;;;;5060535;28;19933;-72
2021/08/10 05:53:46;;;;;;;;;;;14.50;99.90;;;;;;5054218;28;20541;-73
2021/08/10 05:56:18;;;;;;;;;;;14.50;99.90;;;;;;5070206;28;20010;-73
2021/08/10 05:58:50;;;;;;;;;;;14.70;99.90;;;;;;5072451;28;20302;-73
2021/08/10 06:01:23;;;;;;;;;;;15.00;99.90;;;;;;5072048;28;19956;-72
2021/08/10 06:03:50;;;;;;;;;;;15.10;99.90;;;;;;5055920;28;19928;-71
2021/08/10 06:06:23;;;;;;;;;;;15.10;99.90;;;;;;5035565;28;19971;-72
2021/08/10 06:08:56;;;;;;;;;;;15.20;99.90;;;;;;5045839;28;19975;-72
2021/08/10 06:11:23;;;;;;;;;;;15.20;99.90;;;;;;5050115;28;20292;-72
2021/08/10 06:13:54;;;;;;;;;;;15.20;99.90;;;;;;5052141;28;19972;-72
2021/08/10 06:16:22;;;;;;;;;;;15.30;99.90;;;;;;5051874;28;20278;-72
2021/08/10 06:18:51;;;;;;;;;;;15.40;99.90;;;;;;5068818;28;20406;-72
2021/08/10 06:21:25;;;;;;;;;;;15.50;99.90;;;;;;5051542;28;20031;-72
2021/08/10 06:23:57;;;;;;;;;;;15.50;99.90;;;;;;5052171;28;20007;-72
2021/08/10 06:26:24;;;;;;;;;;;15.60;99.90;;;;;;5051677;28;19925;-73
2021/08/10 06:28:51;;;;;;;;;;;15.70;99.90;;;;;;5051815;28;19924;-71
2021/08/10 06:31:22;;;;;;;;;;;15.80;99.90;;;;;;5051535;28;19947;-72
2021/08/10 06:33:54;;;;;;;;;;;15.90;99.90;;;;;;5051215;28;20025;-72
2021/08/10 06:36:27;;;;;;;;;;;16.00;99.90;;;;;;5034011;28;19924;-70
2021/08/10 06:38:55;;;;;;;;;;;16.10;99.90;;;;;;5051385;28;19929;-72
2021/08/10 06:41:27;;;;;;;;;;;16.20;99.90;;;;;;5051340;28;19925;-71
2021/08/10 06:44:08;;;;;;;;;;;16.30;99.90;;;;;;5036948;28;20391;-71
2021/08/10 06:46:47;;;;;;;;;;;16.30;99.90;;;;;;5051662;28;19928;-72
2021/08/10 06:49:20;;;;;;;;;;;16.40;99.90;;;;;;5045070;28;20414;-71
2021/08/10 06:51:52;;;;;;;;;;;16.50;99.90;;;;;;5051953;28;20545;-71
2021/08/10 06:54:19;;;;;;;;;;;16.60;99.90;;;;;;5051496;28;19992;-71
2021/08/10 06:56:51;;;;;;;;;;;16.70;99.90;;;;;;5049960;28;19924;-71
2021/08/10 06:59:24;;;;;;;;;;;16.80;99.90;;;;;;5036390;28;19931;-72
2021/08/10 07:01:56;;;;;;;;;;;16.80;99.90;;;;;;5050859;28;20098;-71
2021/08/10 07:04:28;;;;;;;;;;;16.90;99.90;;;;;;5035908;28;20011;-71
2021/08/10 07:07:00;;;;;;;;;;;16.90;99.90;;;;;;5036088;28;19960;-71
2021/08/10 07:09:28;;;;;;;;;;;17.00;99.90;;;;;;5035341;28;19925;-71
2021/08/10 07:11:56;;;;;;;;;;;17.10;99.90;;;;;;5057368;28;19929;-71
2021/08/10 07:14:24;;;;;;;;;;;17.20;99.90;;;;;;5054532;28;19940;-71
2021/08/10 07:17:00;;;;;;;;;;;17.30;99.90;;;;;;5054300;28;20290;-71
2021/08/10 07:19:33;;;;;;;;;;;17.40;99.90;;;;;;5054717;28;19939;-72
2021/08/10 07:22:13;;;;;;;;;;;17.50;99.90;;;;;;5053712;28;19924;-71
2021/08/10 07:24:43;;;;;;;;;;;17.60;99.90;;;;;;5053647;28;20383;-73
2021/08/10 07:27:16;;;;;;;;;;;17.70;99.90;;;;;;5056892;28;19936;-71
2021/08/10 07:29:44;;;;;;;;;;;17.90;99.90;;;;;;5070081;28;19929;-71
2021/08/10 07:32:11;;;;;;;;;;;18.00;99.90;;;;;;5088625;28;19924;-72
2021/08/10 07:34:43;;;;;;;;;;;18.10;99.90;;;;;;5050321;28;19933;-71
2021/08/10 07:37:19;;;;;;;;;;;18.20;99.90;;;;;;5056718;28;19938;-72
2021/08/10 07:39:53;;;;;;;;;;;18.40;99.90;;;;;;5022223;28;20379;-71
2021/08/10 07:42:27;;;;;;;;;;;18.50;99.90;;;;;;5058796;28;19925;-71
2021/08/10 07:44:59;;;;;;;;;;;18.60;99.90;;;;;;5066868;28;19947;-71
2021/08/10 07:47:34;;;;;;;;;;;18.70;99.90;;;;;;5041061;28;19925;-71
2021/08/10 07:50:06;;;;;;;;;;;18.90;99.90;;;;;;5061319;28;19947;-71
2021/08/10 07:52:38;;;;;;;;;;;19.10;99.90;;;;;;5056442;28;19925;-73
2021/08/10 07:55:10;;;;;;;;;;;19.20;99.90;;;;;;5070413;28;20013;-72
2021/08/10 07:57:42;;;;;;;;;;;19.30;99.90;;;;;;5056586;28;20006;-73
2021/08/10 08:00:14;;;;;;;;;;;19.40;99.90;;;;;;5052068;28;19924;-73
2021/08/10 08:02:47;;;;;;;;;;;19.60;99.90;;;;;;5050095;28;19936;-73
2021/08/10 08:05:21;;;;;;;;;;;19.60;99.90;;;;;;5031075;28;19971;-73
2021/08/10 08:07:53;;;;;;;;;;;19.50;99.90;;;;;;5044178;28;19935;-73
2021/08/10 08:10:25;;;;;;;;;;;19.50;99.90;;;;;;5069410;28;19964;-72
2021/08/10 08:12:57;;;;;;;;;;;19.60;99.90;;;;;;5052747;28;20350;-72
2021/08/10 08:15:25;;;;;;;;;;;19.70;99.90;;;;;;5044640;28;19968;-72
2021/08/10 08:17:52;;;;;;;;;;;19.70;99.90;;;;;;5069586;28;19931;-72
2021/08/10 08:20:24;;;;;;;;;;;19.70;99.90;;;;;;5069874;28;19925;-72
2021/08/10 08:22:50;;;;;;;;;;;19.80;99.90;;;;;;5052528;28;20338;-73
2021/08/10 08:25:22;;;;;;;;;;;19.90;99.90;;;;;;5069630;28;19928;-72
2021/08/10 08:27:50;;;;;;;;;;;20.00;99.90;;;;;;5051229;28;19928;-73
2021/08/10 08:30:22;;;;;;;;;;;20.10;99.90;;;;;;5049731;28;20398;-73
2021/08/10 08:32:50;;;;;;;;;;;20.20;99.90;;;;;;5046841;28;19924;-73
2021/08/10 08:35:17;;;;;;;;;;;20.20;99.90;;;;;;5036317;28;19991;-73
2021/08/10 08:37:49;;;;;;;;;;;20.40;99.90;;;;;;5043838;28;19928;-73
2021/08/10 08:40:17;;;;;;;;;;;20.50;99.90;;;;;;5048535;28;20015;-73
2021/08/10 08:42:49;;;;;;;;;;;20.70;99.90;;;;;;5048025;28;20307;-72
2021/08/10 08:45:16;;;;;;;;;;;20.80;99.90;;;;;;5042624;28;20622;-72
2021/08/10 08:47:52;;;;;;;;;;;20.90;99.90;;;;;;5047501;28;20421;-72
2021/08/10 08:50:20;;;;;;;;;;;21.00;99.90;;;;;;5050298;28;20294;-72
2021/08/10 08:52:53;;;;;;;;;;;21.00;99.90;;;;;;5038311;28;19979;-72
2021/08/10 08:55:20;;;;;;;;;;;21.00;99.90;;;;;;5026279;28;19931;-72
2021/08/10 08:57:52;;;;;;;;;;;21.10;99.90;;;;;;5040069;28;19925;-72
2021/08/10 09:00:19;;;;;;;;;;;21.20;99.90;;;;;;5035647;28;19971;-72
2021/08/10 09:02:52;;;;;;;;;;;21.40;99.90;;;;;;5043993;28;19967;-72
2021/08/10 09:05:19;;;;;;;;;;;21.50;99.90;;;;;;5038885;28;20465;-72
2021/08/10 09:07:46;;;;;;;;;;;21.60;99.90;;;;;;5045849;28;19997;-72
2021/08/10 09:10:14;;;;;;;;;;;21.60;99.90;;;;;;5018723;28;20280;-71
2021/08/10 09:12:48;;;;;;;;;;;21.70;99.90;;;;;;5042526;28;19928;-72
2021/08/10 09:15:37;;;;;;;;;;;21.80;99.90;;;;;;5024822;28;19936;-72
2021/08/10 09:18:10;;;;;;;;;;;21.90;99.90;;;;;;5047027;28;20028;-72
2021/08/10 09:20:40;;;;;;;;;;;22.10;99.90;;;;;;5041636;28;20403;-72
2021/08/10 09:23:08;;;;;;;;;;;22.20;99.90;;;;;;5031457;28;19939;-72
2021/08/10 09:25:52;;;;;;;;;;;22.30;99.90;;;;;;5042227;28;20315;-72
2021/08/10 09:28:19;;;;;;;;;;;22.40;99.90;;;;;;5047547;28;19929;-72
2021/08/10 09:30:48;;;;;;;;;;;22.40;99.90;;;;;;5041185;28;19929;-72
2021/08/10 09:33:17;;;;;;;;;;;22.40;99.90;;;;;;5040648;28;20372;-72
2021/08/10 09:35:49;;;;;;;;;;;22.40;99.90;;;;;;5040425;28;20411;-72
2021/08/10 09:38:21;;;;;;;;;;;22.50;99.90;;;;;;5033412;28;19951;-72
2021/08/10 09:40:53;;;;;;;;;;;22.60;99.90;;;;;;5040934;28;20383;-72
2021/08/10 09:43:27;;;;;;;;;;;22.60;99.90;;;;;;5040590;28;19971;-72
2021/08/10 09:46:06;;;;;;;;;;;22.60;99.90;;;;;;5050861;28;19971;-72
2021/08/10 09:48:33;;;;;;;;;;;22.80;99.90;;;;;;5047318;28;20372;-73
2021/08/10 09:51:07;;;;;;;;;;;22.90;99.90;;;;;;5040756;28;19928;-73
2021/08/10 09:53:40;;;;;;;;;;;23.00;99.90;;;;;;5063565;28;19975;-73
2021/08/10 09:56:09;;;;;;;;;;;23.00;99.90;;;;;;5043004;28;19940;-73
2021/08/10 09:58:57;;;;;;;;;;;22.90;99.90;;;;;;5040855;28;19970;-73
2021/08/10 10:01:34;;;;;;;;;;;22.90;99.90;;;;;;5043242;28;19925;-74
2021/08/10 10:04:18;;;;;;;;;;;23.00;99.90;;;;;;5040561;28;19925;-73
2021/08/10 10:06:53;;;;;;;;;;;23.10;99.90;;;;;;5058967;28;19928;-73
2021/08/10 10:09:25;;;;;;;;;;;23.30;99.90;;;;;;5028174;28;19940;-74
2021/08/10 10:11:53;;;;;;;;;;;23.50;99.90;;;;;;5046201;28;19929;-73
2021/08/10 10:14:26;;;;;;;;;;;23.50;99.90;;;;;;5051956;28;19932;-74
2021/08/10 10:16:58;;;;;;;;;;;23.40;99.90;;;;;;5070276;28;20538;-74
2021/08/10 10:19:27;;;;;;;;;;;23.20;99.90;;;;;;5046156;28;19976;-74
2021/08/10 10:22:03;;;;;;;;;;;23.20;99.90;;;;;;5053316;28;19928;-73
2021/08/10 10:24:36;;;;;;;;;;;23.20;99.90;;;;;;5063330;28;19924;-74
2021/08/10 10:27:04;;;;;;;;;;;23.30;99.90;;;;;;5054795;28;19925;-74
2021/08/10 10:29:32;;;;;;;;;;;23.50;99.90;;;;;;5051627;28;19932;-73
2021/08/10 10:31:59;;;;;;;;;;;23.60;99.90;;;;;;5041502;28;19954;-72
2021/08/10 10:34:26;;;;;;;;;;;23.70;99.90;;;;;;5053887;28;19932;-73
2021/08/10 10:37:00;;;;;;;;;;;23.80;99.90;;;;;;5033351;28;19932;-73
2021/08/10 10:39:29;;;;;;;;;;;23.90;99.90;;;;;;5051208;28;19931;-73
2021/08/10 10:42:00;;;;;;;;;;;24.00;99.90;;;;;;5039765;28;19931;-73
2021/08/10 10:44:44;;;;;;;;;;;24.00;99.90;;;;;;5060550;28;19936;-73
2021/08/10 10:47:26;;;;;;;;;;;24.00;99.90;;;;;;5066235;28;19929;-73
2021/08/10 10:49:57;;;;;;;;;;;24.10;99.90;;;;;;5053046;28;19994;-73
2021/08/10 10:52:30;;;;;;;;;;;24.40;99.90;;;;;;5050469;28;19932;-73
2021/08/10 10:55:04;;;;;;;;;;;24.60;99.90;;;;;;5017351;28;20411;-73
2021/08/10 10:57:35;;;;;;;;;;;24.50;99.90;;;;;;5025655;28;20019;-73
2021/08/10 11:00:07;;;;;;;;;;;24.60;99.90;;;;;;5038545;28;19924;-73
2021/08/10 11:02:37;;;;;;;;;;;24.50;99.90;;;;;;5053796;28;20462;-73
2021/08/10 11:05:09;;;;;;;;;;;24.60;99.90;;;;;;5071156;28;19929;-72
2021/08/10 11:07:37;;;;;;;;;;;24.60;99.90;;;;;;5070822;28;19925;-73
2021/08/10 11:10:11;;;;;;;;;;;24.70;99.90;;;;;;5069936;28;20379;-72
2021/08/10 11:12:46;;;;;;;;;;;24.80;99.90;;;;;;5069685;28;19925;-72
2021/08/10 11:15:16;;;;;;;;;;;24.90;99.90;;;;;;5053483;28;19924;-72
2021/08/10 11:18:02;;;;;;;;;;;25.10;99.90;;;;;;5033415;28;19925;-73
2021/08/10 11:20:35;;;;;;;;;;;25.00;99.90;;;;;;5049768;28;20033;-73
2021/08/10 11:23:23;;;;;;;;;;;25.10;99.90;;;;;;5049218;28;20448;-72
2021/08/10 11:25:58;;;;;;;;;;;25.10;99.90;;;;;;5051129;28;19931;-72
2021/08/10 11:28:29;;;;;;;;;;;25.00;99.90;;;;;;5050693;28;19931;-72
2021/08/10 11:31:05;;;;;;;;;;;24.90;99.90;;;;;;5050585;28;19925;-72
2021/08/10 11:33:40;;;;;;;;;;;24.90;99.90;;;;;;5049773;28;20031;-73
2021/08/10 11:36:15;;;;;;;;;;;24.70;99.90;;;;;;5048055;28;19986;-73
2021/08/10 11:38:47;;;;;;;;;;;24.80;99.90;;;;;;5033828;28;20024;-72
2021/08/10 11:41:24;;;;;;;;;;;25.00;99.90;;;;;;5050362;28;20322;-72
2021/08/10 11:43:53;;;;;;;;;;;25.30;99.90;;;;;;5050216;28;20027;-72
2021/08/10 11:46:24;;;;;;;;;;;25.40;99.90;;;;;;5051082;28;20303;-73
2021/08/10 11:48:55;;;;;;;;;;;25.60;99.90;;;;;;5050758;28;19964;-72
2021/08/10 11:51:33;;;;;;;;;;;25.80;99.90;;;;;;5049892;28;19924;-72
2021/08/10 11:54:08;;;;;;;;;;;26.00;99.90;;;;;;5051318;28;19924;-72
2021/08/10 11:56:35;;;;;;;;;;;26.20;99.90;;;;;;5049325;28;20395;-72
2021/08/10 11:59:03;;;;;;;;;;;26.10;99.90;;;;;;5049457;28;19947;-73
2021/08/10 12:01:36;;;;;;;;;;;26.10;99.90;;;;;;5037069;28;20014;-72
2021/08/10 12:04:15;;;;;;;;;;;26.00;99.90;;;;;;5044114;28;19925;-72
2021/08/10 12:06:43;;;;;;;;;;;26.00;99.90;;;;;;5032306;28;19924;-72
2021/08/10 12:09:38;;;;;;;;;;;25.80;99.90;;;;;;4987831;28;1771092;-72
2021/08/10 12:12:10;;;;;;;;;;;25.70;99.90;;;;;;5049731;28;19925;-72
2021/08/10 12:14:40;;;;;;;;;;;25.70;99.90;;;;;;5051391;28;19931;-72
2021/08/10 12:17:11;;;;;;;;;;;25.80;99.90;;;;;;5050404;28;20021;-73
2021/08/10 12:19:44;;;;;;;;;;;25.90;99.90;;;;;;5032844;28;20000;-72
2021/08/10 12:22:16;;;;;;;;;;;26.00;99.90;;;;;;5049852;28;20350;-72
2021/08/10 12:24:43;;;;;;;;;;;26.10;99.90;;;;;;5051171;28;19925;-72
2021/08/10 12:27:16;;;;;;;;;;;26.10;99.90;;;;;;5033646;28;19964;-72
2021/08/10 12:29:49;;;;;;;;;;;26.20;99.90;;;;;;5049729;28;19928;-72
2021/08/10 12:32:32;;;;;;;;;;;26.20;99.90;;;;;;5050875;28;19925;-73
2021/08/10 12:35:08;;;;;;;;;;;26.30;99.30;;;;;;5054915;28;19950;-73
2021/08/10 12:37:34;;;;;;;;;;;26.30;99.50;;;;;;5053967;28;19925;-73
2021/08/10 12:40:01;;;;;;;;;;;26.40;97.60;;;;;;5055077;28;20031;-72
2021/08/10 12:42:37;;;;;;;;;;;26.30;97.20;;;;;;5037391;28;20287;-72
2021/08/10 12:45:08;;;;;;;;;;;26.40;97.50;;;;;;5053753;28;20619;-73
2021/08/10 12:47:36;;;;;;;;;;;26.30;98.10;;;;;;5053668;28;20395;-72
2021/08/10 12:50:21;;;;;;;;;;;26.10;97.70;;;;;;5053841;28;19924;-72
2021/08/10 12:52:48;;;;;;;;;;;25.80;97.80;;;;;;5053127;28;19931;-72
2021/08/10 12:55:19;;;;;;;;;;;25.70;97.60;;;;;;5055069;28;19931;-72
2021/08/10 12:57:47;;;;;;;;;;;25.60;97.90;;;;;;5053766;28;20383;-72
2021/08/10 13:00:19;;;;;;;;;;;25.70;97.70;;;;;;5053941;28;19971;-73
2021/08/10 13:02:48;;;;;;;;;;;26.00;99.20;;;;;;5036858;28;20028;-73
2021/08/10 13:05:34;;;;;;;;;;;26.40;98.30;;;;;;5037329;28;20019;-73
2021/08/10 13:08:08;;;;;;;;;;;26.90;97.70;;;;;;5037939;28;19964;-73
2021/08/10 13:10:43;;;;;;;;;;;27.30;96.40;;;;;;5038385;28;19928;-73
2021/08/10 13:13:22;;;;;;;;;;;27.60;92.80;;;;;;5053599;28;19925;-74
2021/08/10 13:15:55;;;;;;;;;;;27.70;93.60;;;;;;5037384;28;19960;-74
2021/08/10 13:18:29;;;;;;;;;;;27.70;91.80;;;;;;5053889;28;20115;-74
2021/08/10 13:21:04;;;;;;;;;;;27.60;90.40;;;;;;5054631;28;19931;-74
2021/08/10 13:23:32;;;;;;;;;;;27.30;90.30;;;;;;5034737;28;20161;-73
2021/08/10 13:26:03;;;;;;;;;;;26.90;91.90;;;;;;5032878;28;19932;-73
2021/08/10 13:28:36;;;;;;;;;;;26.60;91.50;;;;;;5033041;28;19931;-73
2021/08/10 13:31:07;;;;;;;;;;;26.40;90.70;;;;;;5032691;28;20027;-74
2021/08/10 13:33:48;;;;;;;;;;;26.40;91.70;;;;;;5033058;28;19929;-73
2021/08/10 13:36:20;;;;;;;;;;;26.40;91.10;;;;;;5034463;28;20019;-74
2021/08/10 13:38:53;;;;;;;;;;;26.40;91.70;;;;;;5033265;28;19925;-73
2021/08/10 13:41:28;;;;;;;;;;;26.60;91.60;;;;;;5033758;28;19994;-74
2021/08/10 13:44:00;;;;;;;;;;;26.70;91.10;;;;;;5032280;28;20027;-74
2021/08/10 13:46:32;;;;;;;;;;;26.60;89.40;;;;;;5017172;28;20340;-73
2021/08/10 13:49:00;;;;;;;;;;;26.70;90.00;;;;;;5049901;28;19925;-73
2021/08/10 13:51:27;;;;;;;;;;;26.60;88.40;;;;;;5048516;28;19961;-73
2021/08/10 13:53:58;;;;;;;;;;;26.50;85.70;;;;;;5043005;28;19942;-73
2021/08/10 13:56:26;;;;;;;;;;;26.50;88.90;;;;;;5067124;28;20295;-73
2021/08/10 13:58:54;;;;;;;;;;;26.70;89.10;;;;;;5034947;28;19986;-73
2021/08/10 14:04:16;;;;;;;;;;;26.70;89.50;;;;;;5045414;28;20280;-74
2021/08/10 14:06:48;;;;;;;;;;;26.70;89.70;;;;;;5046936;28;19951;-74
2021/08/10 14:09:20;;;;;;;;;;;26.60;88.00;;;;;;5052017;28;19924;-73
2021/08/10 14:11:46;;;;;;;;;;;26.60;87.00;;;;;;5052548;28;19964;-73
2021/08/10 14:14:18;;;;;;;;;;;26.40;88.70;;;;;;5036117;28;19931;-73
2021/08/10 14:16:45;;;;;;;;;;;26.30;86.80;;;;;;5051853;28;20024;-73
2021/08/10 14:19:17;;;;;;;;;;;26.30;87.10;;;;;;5051523;28;19954;-73
2021/08/10 14:21:43;;;;;;;;;;;26.30;86.70;;;;;;5034682;28;19933;-73
2021/08/10 14:24:15;;;;;;;;;;;26.20;86.30;;;;;;5054337;28;19956;-73
2021/08/10 14:26:47;;;;;;;;;;;26.30;89.10;;;;;;5059894;28;20003;-73
2021/08/10 14:29:13;;;;;;;;;;;26.60;87.90;;;;;;5057228;28;19947;-73
2021/08/10 14:31:45;;;;;;;;;;;26.90;87.30;;;;;;5065688;28;20020;-74
2021/08/10 14:34:12;;;;;;;;;;;27.00;87.30;;;;;;5054206;28;20028;-74
2021/08/10 14:36:38;;;;;;;;;;;27.20;86.70;;;;;;5066432;28;20354;-73
2021/08/10 14:39:05;;;;;;;;;;;27.50;84.40;;;;;;5053991;28;19986;-73
2021/08/10 14:41:32;;;;;;;;;;;27.60;84.20;;;;;;5050667;28;20020;-73
2021/08/10 14:44:04;;;;;;;;;;;27.70;84.00;;;;;;5046078;28;20012;-74
2021/08/10 14:46:31;;;;;;;;;;;27.90;81.50;;;;;;5046370;28;20019;-73